Aktuální počasí v Česku a ve světě - METAR

Seznam meteostanic umístěných nejčasteji na letišti v ČR a ve světě

Vyhledat místa podle abecedy:
A B C D E F G H I J K L M N O P Q R S T U V W X Y Z

Filtrovat:

ID stanice:
a/nebo
Název místa (fulltext):
 
Místo (ID)Naposledy načteno 
Brno - Tuřany (Brno/Tu) 21.09.2020 15:00 UTC Zobrazit data
Místo: Brno - Tuřany
Teplota: 24 °C (pocitová: 24.3 °C)
Vítr: 5 m/s z(e) 120°
Počasí: skorojasno
Dohlednost: 35 km
Zákl. oblačnosti: 1/8 7500 m
Vlhkost: 34%
Červená - Opava (Cervena/uL) 21.09.2020 15:00 UTC Zobrazit data
Místo: Červená - Opava
Teplota: 19 °C (pocitová: 17.6 °C)
Vítr: 4 m/s z(e) 140°
Počasí: skorojasno
Dohlednost: 40 km
Zákl. oblačnosti: 1/8 7500 m
Vlhkost: 52%
České Budějovice (C.Budej/po) 21.09.2020 15:00 UTC Zobrazit data
Místo: České Budějovice
Teplota: 23 °C (pocitová: 23.3 °C)
Vítr: 3 m/s z(e) 90°
Počasí:
Dohlednost: 35 km
Zákl. oblačnosti: N/A
Vlhkost: 50%
Cheb (Cheb) 21.09.2020 15:00 UTC Zobrazit data
Místo: Cheb
Teplota: 22 °C (pocitová: 22.7 °C)
Vítr: 1 m/s z(e) 0°
Počasí: skorojasno
Dohlednost: 50 km
Zákl. oblačnosti: 1/8 9000 m
Vlhkost: 50%
Chotusice - Čáslav (Caslav) 21.09.2020 15:00 UTC Zobrazit data
Místo: Chotusice - Čáslav
Teplota: 24 °C (pocitová: 24.3 °C)
Vítr: 6 m/s z(e) 130°
Počasí: slunečno
Dohlednost: 20 km
Zákl. oblačnosti: N/A
Vlhkost: 41%
Churáňov (Churanov) 21.09.2020 15:00 UTC Zobrazit data
Místo: Churáňov
Teplota: 16 °C (pocitová: 14.6 °C)
Vítr: 2 m/s z(e) 50°
Počasí: skorojasno
Dohlednost: 20 km
Zákl. oblačnosti: 1/8 750 m
Vlhkost: 68%
Doksany - Litoměřice (Doksany) 21.09.2020 15:00 UTC Zobrazit data
Místo: Doksany - Litoměřice
Teplota: 24 °C (pocitová: 24.5 °C)
Vítr: 4 m/s z(e) 120°
Počasí: slunečno
Dohlednost: 50 km
Zákl. oblačnosti: N/A
Vlhkost: 41%
Dukovany (Dukovany) 21.09.2020 15:00 UTC Zobrazit data
Místo: Dukovany
Teplota: 23 °C (pocitová: 22.8 °C)
Vítr: 6 m/s z(e) 150°
Počasí: skorojasno
Dohlednost: 25 km
Zákl. oblačnosti: 1/8 3600 m
Vlhkost: 36%
Holešov (Holesov) 21.09.2020 15:00 UTC Zobrazit data
Místo: Holešov
Teplota: 23 °C (pocitová: 22.9 °C)
Vítr: 5 m/s z(e) 120°
Počasí: skorojasno
Dohlednost: 40 km
Zákl. oblačnosti: 1/8 6900 m
Vlhkost: 44%
Kadaň - Tušimice (Tusimice) 21.09.2020 15:00 UTC Zobrazit data
Místo: Kadaň - Tušimice
Teplota: 23 °C (pocitová: 23.6 °C)
Vítr: 2 m/s z(e) 0°
Počasí: slunečno
Dohlednost: 25 km
Zákl. oblačnosti: N/A
Vlhkost: 44%
Karlovy Vary (K.Vary) 21.09.2020 15:00 UTC Zobrazit data
Místo: Karlovy Vary
Teplota: 20 °C (pocitová: 19 °C)
Vítr: 4 m/s z(e) 100°
Počasí: slunečno
Dohlednost: 40 km
Zákl. oblačnosti: N/A
Vlhkost: 49%
Kocelovice (Kocelovice) 21.09.2020 15:00 UTC Zobrazit data
Místo: Kocelovice
Teplota: 21 °C (pocitová: 20.7 °C)
Vítr: 3 m/s z(e) 100°
Počasí: slunečno
Dohlednost: 35 km
Zákl. oblačnosti: N/A
Vlhkost: 46%
Kopisty (Kopisty) 21.09.2020 15:00 UTC Zobrazit data
Místo: Kopisty
Teplota: 24 °C (pocitová: 24.9 °C)
Vítr: 2 m/s z(e) 120°
Počasí: slunečno
Dohlednost: 35 km
Zákl. oblačnosti: N/A
Vlhkost: 41%
Kostelní Myslová (K.Myslova) 21.09.2020 15:00 UTC Zobrazit data
Místo: Kostelní Myslová
Teplota: 20 °C (pocitová: 19 °C)
Vítr: 4 m/s z(e) 130°
Počasí: slunečno
Dohlednost: 30 km
Zákl. oblačnosti: N/A
Vlhkost: 56%
Křešín - Kramolín (Kramolin) 21.09.2020 15:00 UTC Zobrazit data
Místo: Křešín - Kramolín
Teplota: 21 °C (pocitová: 20.4 °C)
Vítr: 4 m/s z(e) 140°
Počasí: slunečno
Dohlednost: 35 km
Zákl. oblačnosti: N/A
Vlhkost: 53%
Kuchařovice - Znojmo (Kucharovic) 21.09.2020 15:00 UTC Zobrazit data
Místo: Kuchařovice - Znojmo
Teplota: 23 °C (pocitová: 22.6 °C)
Vítr: 8 m/s z(e) 140°
Počasí: skorojasno
Dohlednost: 35 km
Zákl. oblačnosti: 1/8 7800 m
Vlhkost: 29%
Liberec (Liberec) 21.09.2020 15:00 UTC Zobrazit data
Místo: Liberec
Teplota: 23 °C (pocitová: 23.3 °C)
Vítr: 3 m/s z(e) 150°
Počasí: slunečno
Dohlednost: 40 km
Zákl. oblačnosti: N/A
Vlhkost: 44%
Luká (Luka) 21.09.2020 15:00 UTC Zobrazit data
Místo: Luká
Teplota: 21 °C (pocitová: 20 °C)
Vítr: 6 m/s z(e) 140°
Počasí: slunečno
Dohlednost: 45 km
Zákl. oblačnosti: N/A
Vlhkost: 43%
Lysá Hora (Lysa Hora) 21.09.2020 15:00 UTC Zobrazit data
Místo: Lysá Hora
Teplota: 15 °C (pocitová: 13.3 °C)
Vítr: 2 m/s z(e) 0°
Počasí: skorojasno
Dohlednost: 40 km
Zákl. oblačnosti: 1/8 690 m
Vlhkost: 68%
Milešovka (Milesovka) 21.09.2020 15:00 UTC Zobrazit data
Místo: Milešovka
Teplota: 20 °C (pocitová: 18.4 °C)
Vítr: 7 m/s z(e) 130°
Počasí: slunečno
Dohlednost: 35 km
Zákl. oblačnosti: N/A
Vlhkost: 56%
Mošnov (Ostrava/Mo) 21.09.2020 15:00 UTC Zobrazit data
Místo: Mošnov
Teplota: 23 °C (pocitová: 23.6 °C)
Vítr: 2 m/s z(e) 0°
Počasí: skorojasno
Dohlednost: 28 km
Zákl. oblačnosti: 1/8 1500 m
Vlhkost: 50%
Náměšť nad Oslavou (Namest n/O) 21.09.2020 15:00 UTC Zobrazit data
Místo: Náměšť nad Oslavou
Teplota: 22 °C (pocitová: 21.6 °C)
Vítr: 5 m/s z(e) 130°
Počasí: skorojasno
Dohlednost: 20 km
Zákl. oblačnosti: 1/8 7500 m
Vlhkost: 38%
Pardubice (Pardubice) 21.09.2020 15:00 UTC Zobrazit data
Místo: Pardubice
Teplota: 24 °C (pocitová: 24.3 °C)
Vítr: 5 m/s z(e) 130°
Počasí: skorojasno
Dohlednost: 20 km
Zákl. oblačnosti: 1/8 6600 m
Vlhkost: 41%
Pec pod Sněžkou (Pec p.Snez) 21.09.2020 15:00 UTC Zobrazit data
Místo: Pec pod Sněžkou
Teplota: 18 °C (pocitová: 17.2 °C)
Vítr: 2 m/s z(e) 0°
Počasí: skorojasno
Dohlednost: 30 km
Zákl. oblačnosti: 1/8 1170 m
Vlhkost: 56%
Plzeň město - Mikulka (Plzen/Miku) 21.09.2020 15:00 UTC Zobrazit data
Místo: Plzeň město - Mikulka
Teplota: 24 °C (pocitová: 24.9 °C)
Vítr: 2 m/s z(e) 0°
Počasí: slunečno
Dohlednost: 45 km
Zákl. oblačnosti: N/A
Vlhkost: 41%
Polom (Polom) 21.09.2020 15:00 UTC Zobrazit data
Místo: Polom
Teplota: 19 °C (pocitová: 18 °C)
Vítr: 3 m/s z(e) 180°
Počasí: slunečno
Dohlednost: 30 km
Zákl. oblačnosti: N/A
Vlhkost: 60%
Praha - Karlov (Praha/Kar) 21.09.2020 15:00 UTC Zobrazit data
Místo: Praha - Karlov
Teplota: 24 °C (pocitová: 24.7 °C)
Vítr: 3 m/s z(e) 100°
Počasí: slunečno
Dohlednost: 30 km
Zákl. oblačnosti: N/A
Vlhkost: 41%
Praha - Kbely (Praha/Kbe) 21.09.2020 15:00 UTC Zobrazit data
Místo: Praha - Kbely
Teplota: 24 °C (pocitová: 24.7 °C)
Vítr: 3 m/s z(e) 120°
Počasí: slunečno
Dohlednost: 30 km
Zákl. oblačnosti: N/A
Vlhkost: 44%
Praha - Libuš (Praha/Lib) 21.09.2020 15:00 UTC Zobrazit data
Místo: Praha - Libuš
Teplota: 24 °C (pocitová: 24.9 °C)
Vítr: 2 m/s z(e) 0°
Počasí: slunečno
Dohlednost: 35 km
Zákl. oblačnosti: N/A
Vlhkost: 41%
Praha - Ruzyně (Praha/Ru) 21.09.2020 15:00 UTC Zobrazit data
Místo: Praha - Ruzyně
Teplota: 23 °C (pocitová: 23.3 °C)
Vítr: 3 m/s z(e) 130°
Počasí: slunečno
Dohlednost: 30 km
Zákl. oblačnosti: N/A
Vlhkost: 44%
Přibyslav (Pribyslav) 21.09.2020 15:00 UTC Zobrazit data
Místo: Přibyslav
Teplota: 21 °C (pocitová: 19.8 °C)
Vítr: 7 m/s z(e) 140°
Počasí: slunečno
Dohlednost: 25 km
Zákl. oblačnosti: N/A
Vlhkost: 43%
Přimda (Primda) 21.09.2020 15:00 UTC Zobrazit data
Místo: Přimda
Teplota: 18 °C (pocitová: 17.8 °C)
Vítr: 1 m/s z(e) 80°
Počasí: slunečno
Dohlednost: 45 km
Zákl. oblačnosti: N/A
Vlhkost: 56%
Šerák (Serak) 21.09.2020 15:00 UTC Zobrazit data
Místo: Šerák
Teplota: 14 °C (pocitová: 11.3 °C)
Vítr: 3 m/s z(e) 220°
Počasí: slunečno
Dohlednost: 50 km
Zákl. oblačnosti: N/A
Vlhkost: 63%
Svratouch (Svratouch) 21.09.2020 15:00 UTC Zobrazit data
Místo: Svratouch
Teplota: 19 °C (pocitová: 16.8 °C)
Vítr: 8 m/s z(e) 170°
Počasí: skorojasno
Dohlednost: 28 km
Zákl. oblačnosti: 1/8 7800 m
Vlhkost: 46%
Temelín (Temelin) 21.09.2020 15:00 UTC Zobrazit data
Místo: Temelín
Teplota: 21 °C (pocitová: 20.4 °C)
Vítr: 4 m/s z(e) 110°
Počasí: slunečno
Dohlednost: 35 km
Zákl. oblačnosti: N/A
Vlhkost: 53%
Ústí nad Labem - Kočkov (Usti n/L) 21.09.2020 15:00 UTC Zobrazit data
Místo: Ústí nad Labem - Kočkov
Teplota: 23 °C (pocitová: 23.1 °C)
Vítr: 4 m/s z(e) 160°
Počasí: slunečno
Dohlednost: 45 km
Zákl. oblačnosti: N/A
Vlhkost: 44%
Ústí nad Orlicí (Usti n/O) 21.09.2020 15:00 UTC Zobrazit data
Místo: Ústí nad Orlicí
Teplota: 22 °C (pocitová: 21.6 °C)
Vítr: 5 m/s z(e) 110°
Počasí: skorojasno
Dohlednost: 30 km
Zákl. oblačnosti: 1/8 9000 m
Vlhkost: 50%
Aalborg (EKYT) 21.09.2020 14:50 UTC Zobrazit METAR
EKYT 211450Z AUTO 26013KT 9999 OVC020/// 15/11 Q1015
Aarhus (EKAH) 15.09.2020 09:50 UTC Zobrazit METAR
EKAH 150950Z 12005KT 090V160 CAVOK 21/16 Q1022
Abu Dhabi (OMAA) 21.09.2020 15:00 UTC Zobrazit METAR
OMAA 211500Z 34010KT 290V360 CAVOK 33/27 Q1001 NOSIG
Abuja (DNAA) 21.09.2020 09:00 UTC Zobrazit METAR
DNAA 210900Z 15008KT 9999 BKN008 24/23 Q1017 TEMPO TS FEW020CB
Accra (DGAA) 21.09.2020 15:00 UTC Zobrazit METAR
DGAA 211500Z 21019KT 9999 SCT036 27/22 Q1012 NOSIG
Addis Abeba (HAAB) 21.09.2020 15:00 UTC Zobrazit METAR
HAAB 211500Z 16004KT 9999 BKN025 18/13 Q1024
Agana (PGUM) 21.09.2020 14:54 UTC Zobrazit METAR
PGUM 211454Z 16007KT 10SM FEW010 SCT030 BKN036 25/23 A2983 RMK AO2 SLP095 T02560233 58014
Ahe Island (NTHE) Zatím nenačteno  
Akureyri (BIAR) 21.09.2020 15:00 UTC Zobrazit METAR
BIAR 211500Z VRB02KT 9999 FEW028 BKN050 05/02 Q0995
Almaty (UAAA) Zatím nenačteno  
Amman (OJAM) 21.09.2020 15:00 UTC Zobrazit METAR
OJAM 211500Z 32006KT 5000 HZ NSC 30/15 Q1014 NOSIG
Amsterdam (EHAM) 21.09.2020 14:55 UTC Zobrazit METAR
EHAM 211455Z 04003KT 320V100 CAVOK 23/11 Q1015 NOSIG
Antananarivo (FMMI) 21.09.2020 15:00 UTC Zobrazit METAR
FMMI 211500Z 10007KT 9999 FEW023 20/11 Q1022 NOSIG
1 2 3 ... 9 Další
Reklama

Počasí na Váš email

Emaily jsou bez reklamy a bez spamu



Odhlásit newsletter




Další české internetové stránky (nejen) o počasí najdete v katalogu TOPlist - weby o počasí nebo vyhledejte na internetu, co jste tu na 🌞 Slunečnu ⛅ zatím nenašli:
⭐ Přidat Slunečno.cz do oblíbených | 🏠 Nastavit Slunečno.cz jako HOMEPAGE

⬆️ Posunout stránku nahoru ⬆️
Reklama